sensor_id;sensor_type;location;lat;lon;timestamp;P1;durP1;ratioP1;P2;durP2;ratioP2
62696;SDS011;48761;42.680;23.312;2024-02-16T00:01:49;23.83;;;13.18;;
62696;SDS011;48761;42.680;23.312;2024-02-16T00:04:15;28.05;;;14.30;;
62696;SDS011;48761;42.680;23.312;2024-02-16T00:06:41;26.42;;;14.10;;
62696;SDS011;48761;42.680;23.312;2024-02-16T00:09:07;23.63;;;13.95;;
62696;SDS011;48761;42.680;23.312;2024-02-16T00:11:33;26.73;;;13.57;;
62696;SDS011;48761;42.680;23.312;2024-02-16T00:13:59;27.45;;;14.20;;
62696;SDS011;48761;42.680;23.312;2024-02-16T00:16:25;23.10;;;14.82;;
62696;SDS011;48761;42.680;23.312;2024-02-16T00:18:51;26.45;;;14.35;;
62696;SDS011;48761;42.680;23.312;2024-02-16T00:21:17;24.75;;;14.15;;
62696;SDS011;48761;42.680;23.312;2024-02-16T00:23:43;24.33;;;14.05;;
62696;SDS011;48761;42.680;23.312;2024-02-16T00:26:09;22.38;;;13.52;;
62696;SDS011;48761;42.680;23.312;2024-02-16T00:28:35;26.27;;;14.43;;
62696;SDS011;48761;42.680;23.312;2024-02-16T00:31:00;24.95;;;13.63;;
62696;SDS011;48761;42.680;23.312;2024-02-16T00:33:27;21.50;;;13.43;;
62696;SDS011;48761;42.680;23.312;2024-02-16T00:35:53;21.88;;;14.50;;
62696;SDS011;48761;42.680;23.312;2024-02-16T00:38:19;24.55;;;14.02;;
62696;SDS011;48761;42.680;23.312;2024-02-16T00:40:45;25.98;;;14.43;;
62696;SDS011;48761;42.680;23.312;2024-02-16T00:43:11;25.23;;;14.57;;
62696;SDS011;48761;42.680;23.312;2024-02-16T00:45:37;22.52;;;13.60;;
62696;SDS011;48761;42.680;23.312;2024-02-16T00:48:03;26.33;;;14.57;;
62696;SDS011;48761;42.680;23.312;2024-02-16T00:50:29;26.13;;;13.52;;
62696;SDS011;48761;42.680;23.312;2024-02-16T00:52:56;26.55;;;13.07;;
62696;SDS011;48761;42.680;23.312;2024-02-16T00:55:22;23.25;;;13.98;;
62696;SDS011;48761;42.680;23.312;2024-02-16T00:57:48;23.80;;;12.98;;
62696;SDS011;48761;42.680;23.312;2024-02-16T01:00:14;27.48;;;13.82;;
62696;SDS011;48761;42.680;23.312;2024-02-16T01:02:40;23.65;;;14.23;;
62696;SDS011;48761;42.680;23.312;2024-02-16T01:05:06;25.55;;;14.32;;
62696;SDS011;48761;42.680;23.312;2024-02-16T01:07:32;24.02;;;14.13;;
62696;SDS011;48761;42.680;23.312;2024-02-16T01:09:58;21.95;;;13.60;;
62696;SDS011;48761;42.680;23.312;2024-02-16T01:12:24;24.75;;;13.98;;
62696;SDS011;48761;42.680;23.312;2024-02-16T01:14:50;22.00;;;14.07;;
62696;SDS011;48761;42.680;23.312;2024-02-16T01:17:16;23.92;;;13.57;;
62696;SDS011;48761;42.680;23.312;2024-02-16T01:19:42;25.83;;;13.75;;
62696;SDS011;48761;42.680;23.312;2024-02-16T01:22:08;26.65;;;14.18;;
62696;SDS011;48761;42.680;23.312;2024-02-16T01:24:35;24.90;;;14.27;;
62696;SDS011;48761;42.680;23.312;2024-02-16T01:27:01;26.10;;;14.00;;
62696;SDS011;48761;42.680;23.312;2024-02-16T01:29:27;25.17;;;14.10;;
62696;SDS011;48761;42.680;23.312;2024-02-16T01:31:53;21.60;;;13.48;;
62696;SDS011;48761;42.680;23.312;2024-02-16T01:34:19;21.70;;;13.90;;
62696;SDS011;48761;42.680;23.312;2024-02-16T01:36:45;20.85;;;12.93;;
62696;SDS011;48761;42.680;23.312;2024-02-16T01:39:11;24.02;;;13.25;;
62696;SDS011;48761;42.680;23.312;2024-02-16T01:41:40;24.35;;;13.07;;
62696;SDS011;48761;42.680;23.312;2024-02-16T01:44:07;21.17;;;12.77;;
62696;SDS011;48761;42.680;23.312;2024-02-16T01:46:33;26.70;;;13.85;;
62696;SDS011;48761;42.680;23.312;2024-02-16T01:48:59;29.23;;;13.63;;
62696;SDS011;48761;42.680;23.312;2024-02-16T01:51:26;22.88;;;13.02;;
62696;SDS011;48761;42.680;23.312;2024-02-16T01:53:52;23.58;;;13.20;;
62696;SDS011;48761;42.680;23.312;2024-02-16T01:56:19;23.30;;;13.25;;
62696;SDS011;48761;42.680;23.312;2024-02-16T01:58:46;23.55;;;12.75;;
62696;SDS011;48761;42.680;23.312;2024-02-16T02:01:13;25.27;;;12.85;;
62696;SDS011;48761;42.680;23.312;2024-02-16T02:03:38;26.63;;;12.90;;
62696;SDS011;48761;42.680;23.312;2024-02-16T02:06:05;24.67;;;14.52;;
62696;SDS011;48761;42.680;23.312;2024-02-16T02:08:30;23.85;;;15.45;;
62696;SDS011;48761;42.680;23.312;2024-02-16T02:10:56;26.92;;;16.02;;
62696;SDS011;48761;42.680;23.312;2024-02-16T02:13:22;25.23;;;14.63;;
62696;SDS011;48761;42.680;23.312;2024-02-16T02:15:48;27.85;;;15.95;;
62696;SDS011;48761;42.680;23.312;2024-02-16T02:18:15;28.67;;;14.52;;
62696;SDS011;48761;42.680;23.312;2024-02-16T02:20:40;24.35;;;13.32;;
62696;SDS011;48761;42.680;23.312;2024-02-16T02:23:06;19.83;;;12.85;;
62696;SDS011;48761;42.680;23.312;2024-02-16T02:25:33;24.17;;;13.38;;
62696;SDS011;48761;42.680;23.312;2024-02-16T02:27:58;23.67;;;12.88;;
62696;SDS011;48761;42.680;23.312;2024-02-16T02:30:24;26.38;;;13.05;;
62696;SDS011;48761;42.680;23.312;2024-02-16T02:32:50;24.95;;;12.88;;
62696;SDS011;48761;42.680;23.312;2024-02-16T02:35:16;26.45;;;13.63;;
62696;SDS011;48761;42.680;23.312;2024-02-16T02:37:44;22.88;;;12.38;;
62696;SDS011;48761;42.680;23.312;2024-02-16T02:40:10;22.17;;;11.63;;
62696;SDS011;48761;42.680;23.312;2024-02-16T02:42:36;21.70;;;12.50;;
62696;SDS011;48761;42.680;23.312;2024-02-16T02:45:02;21.58;;;11.38;;
62696;SDS011;48761;42.680;23.312;2024-02-16T02:47:28;15.57;;;10.60;;
62696;SDS011;48761;42.680;23.312;2024-02-16T02:49:54;19.00;;;11.30;;
62696;SDS011;48761;42.680;23.312;2024-02-16T02:52:21;19.90;;;11.43;;
62696;SDS011;48761;42.680;23.312;2024-02-16T02:54:47;21.08;;;11.60;;
62696;SDS011;48761;42.680;23.312;2024-02-16T02:57:13;20.73;;;12.02;;
62696;SDS011;48761;42.680;23.312;2024-02-16T02:59:38;21.88;;;11.43;;
62696;SDS011;48761;42.680;23.312;2024-02-16T03:02:05;18.92;;;11.35;;
62696;SDS011;48761;42.680;23.312;2024-02-16T03:04:31;22.13;;;11.30;;
62696;SDS011;48761;42.680;23.312;2024-02-16T03:06:57;18.92;;;11.98;;
62696;SDS011;48761;42.680;23.312;2024-02-16T03:09:23;17.50;;;11.13;;
62696;SDS011;48761;42.680;23.312;2024-02-16T03:11:49;18.48;;;10.55;;
62696;SDS011;48761;42.680;23.312;2024-02-16T03:14:16;18.65;;;10.68;;
62696;SDS011;48761;42.680;23.312;2024-02-16T03:16:42;20.65;;;10.55;;
62696;SDS011;48761;42.680;23.312;2024-02-16T03:19:08;17.65;;;10.32;;
62696;SDS011;48761;42.680;23.312;2024-02-16T03:21:34;20.35;;;10.77;;
62696;SDS011;48761;42.680;23.312;2024-02-16T03:24:01;19.48;;;10.07;;
62696;SDS011;48761;42.680;23.312;2024-02-16T03:26:27;17.35;;;10.88;;
62696;SDS011;48761;42.680;23.312;2024-02-16T03:28:53;21.10;;;11.73;;
62696;SDS011;48761;42.680;23.312;2024-02-16T03:31:20;19.42;;;11.05;;
62696;SDS011;48761;42.680;23.312;2024-02-16T03:33:48;20.35;;;11.00;;
62696;SDS011;48761;42.680;23.312;2024-02-16T03:36:15;23.02;;;11.25;;
62696;SDS011;48761;42.680;23.312;2024-02-16T03:38:41;21.60;;;11.10;;
62696;SDS011;48761;42.680;23.312;2024-02-16T03:41:08;18.23;;;10.25;;
62696;SDS011;48761;42.680;23.312;2024-02-16T03:43:38;20.75;;;10.50;;
62696;SDS011;48761;42.680;23.312;2024-02-16T03:46:04;23.25;;;10.98;;
62696;SDS011;48761;42.680;23.312;2024-02-16T03:48:30;23.65;;;11.50;;
62696;SDS011;48761;42.680;23.312;2024-02-16T03:50:56;23.00;;;11.05;;
62696;SDS011;48761;42.680;23.312;2024-02-16T03:53:23;22.33;;;11.13;;
62696;SDS011;48761;42.680;23.312;2024-02-16T03:55:49;17.88;;;10.57;;
62696;SDS011;48761;42.680;23.312;2024-02-16T03:58:15;19.98;;;10.32;;
62696;SDS011;48761;42.680;23.312;2024-02-16T04:00:41;19.63;;;10.70;;
62696;SDS011;48761;42.680;23.312;2024-02-16T04:03:08;16.27;;;9.90;;
62696;SDS011;48761;42.680;23.312;2024-02-16T04:05:34;16.63;;;10.00;;
62696;SDS011;48761;42.680;23.312;2024-02-16T04:08:00;16.73;;;9.80;;
62696;SDS011;48761;42.680;23.312;2024-02-16T04:10:26;18.50;;;10.35;;
62696;SDS011;48761;42.680;23.312;2024-02-16T04:12:53;15.02;;;9.65;;
62696;SDS011;48761;42.680;23.312;2024-02-16T04:15:19;18.02;;;9.98;;
62696;SDS011;48761;42.680;23.312;2024-02-16T04:17:45;19.73;;;10.93;;
62696;SDS011;48761;42.680;23.312;2024-02-16T04:20:11;20.10;;;10.55;;
62696;SDS011;48761;42.680;23.312;2024-02-16T04:22:37;21.38;;;10.95;;
62696;SDS011;48761;42.680;23.312;2024-02-16T04:25:04;18.38;;;10.32;;
62696;SDS011;48761;42.680;23.312;2024-02-16T04:27:31;20.35;;;10.93;;
62696;SDS011;48761;42.680;23.312;2024-02-16T04:29:57;16.23;;;9.90;;
62696;SDS011;48761;42.680;23.312;2024-02-16T04:32:23;19.45;;;10.32;;
62696;SDS011;48761;42.680;23.312;2024-02-16T04:34:49;22.45;;;10.25;;
62696;SDS011;48761;42.680;23.312;2024-02-16T04:37:14;22.10;;;10.35;;
62696;SDS011;48761;42.680;23.312;2024-02-16T04:39:43;21.27;;;10.27;;
62696;SDS011;48761;42.680;23.312;2024-02-16T04:42:09;21.52;;;11.02;;
62696;SDS011;48761;42.680;23.312;2024-02-16T04:44:38;24.83;;;10.68;;
62696;SDS011;48761;42.680;23.312;2024-02-16T04:47:04;21.23;;;10.13;;
62696;SDS011;48761;42.680;23.312;2024-02-16T04:49:31;23.52;;;11.18;;
62696;SDS011;48761;42.680;23.312;2024-02-16T04:51:57;24.83;;;11.48;;
62696;SDS011;48761;42.680;23.312;2024-02-16T04:54:23;25.02;;;13.23;;
62696;SDS011;48761;42.680;23.312;2024-02-16T04:56:49;27.67;;;12.48;;
62696;SDS011;48761;42.680;23.312;2024-02-16T04:59:16;20.63;;;11.23;;
62696;SDS011;48761;42.680;23.312;2024-02-16T05:01:43;22.83;;;11.27;;
62696;SDS011;48761;42.680;23.312;2024-02-16T05:04:09;17.60;;;10.93;;
62696;SDS011;48761;42.680;23.312;2024-02-16T05:06:38;25.23;;;10.95;;
62696;SDS011;48761;42.680;23.312;2024-02-16T05:11:33;22.33;;;11.32;;
62696;SDS011;48761;42.680;23.312;2024-02-16T05:13:58;24.35;;;14.35;;
62696;SDS011;48761;42.680;23.312;2024-02-16T05:16:25;23.98;;;12.48;;
62696;SDS011;48761;42.680;23.312;2024-02-16T05:18:52;23.58;;;12.82;;
62696;SDS011;48761;42.680;23.312;2024-02-16T05:21:18;25.23;;;13.57;;
62696;SDS011;48761;42.680;23.312;2024-02-16T05:23:44;25.75;;;16.02;;
62696;SDS011;48761;42.680;23.312;2024-02-16T05:26:10;28.15;;;15.73;;
62696;SDS011;48761;42.680;23.312;2024-02-16T05:28:36;31.70;;;14.63;;
62696;SDS011;48761;42.680;23.312;2024-02-16T05:31:14;26.45;;;14.65;;
62696;SDS011;48761;42.680;23.312;2024-02-16T05:33:43;29.15;;;15.52;;
62696;SDS011;48761;42.680;23.312;2024-02-16T05:36:10;30.17;;;14.68;;
62696;SDS011;48761;42.680;23.312;2024-02-16T05:38:37;30.50;;;16.35;;
62696;SDS011;48761;42.680;23.312;2024-02-16T05:41:03;29.30;;;15.35;;
62696;SDS011;48761;42.680;23.312;2024-02-16T05:43:29;32.28;;;17.08;;
62696;SDS011;48761;42.680;23.312;2024-02-16T05:45:55;28.75;;;17.02;;
62696;SDS011;48761;42.680;23.312;2024-02-16T05:48:21;34.88;;;16.75;;
62696;SDS011;48761;42.680;23.312;2024-02-16T05:50:47;31.10;;;15.88;;
62696;SDS011;48761;42.680;23.312;2024-02-16T05:53:13;33.35;;;16.05;;
62696;SDS011;48761;42.680;23.312;2024-02-16T05:55:40;32.30;;;16.52;;
62696;SDS011;48761;42.680;23.312;2024-02-16T05:58:05;31.80;;;16.77;;
62696;SDS011;48761;42.680;23.312;2024-02-16T06:00:33;30.38;;;16.15;;
62696;SDS011;48761;42.680;23.312;2024-02-16T06:02:59;29.45;;;15.10;;
62696;SDS011;48761;42.680;23.312;2024-02-16T06:05:25;26.60;;;15.02;;
62696;SDS011;48761;42.680;23.312;2024-02-16T06:07:51;30.75;;;15.52;;
62696;SDS011;48761;42.680;23.312;2024-02-16T06:10:17;32.95;;;16.30;;
62696;SDS011;48761;42.680;23.312;2024-02-16T06:12:43;27.00;;;15.75;;
62696;SDS011;48761;42.680;23.312;2024-02-16T06:15:09;31.55;;;16.52;;
62696;SDS011;48761;42.680;23.312;2024-02-16T06:17:35;26.48;;;14.95;;
62696;SDS011;48761;42.680;23.312;2024-02-16T06:20:02;31.00;;;15.65;;
62696;SDS011;48761;42.680;23.312;2024-02-16T06:22:29;29.00;;;16.63;;
62696;SDS011;48761;42.680;23.312;2024-02-16T06:24:55;31.92;;;17.05;;
62696;SDS011;48761;42.680;23.312;2024-02-16T06:27:21;31.33;;;16.13;;
62696;SDS011;48761;42.680;23.312;2024-02-16T06:29:47;37.45;;;17.42;;
62696;SDS011;48761;42.680;23.312;2024-02-16T06:32:13;28.88;;;16.30;;
62696;SDS011;48761;42.680;23.312;2024-02-16T06:34:39;30.55;;;17.75;;
62696;SDS011;48761;42.680;23.312;2024-02-16T06:37:05;31.45;;;16.45;;
62696;SDS011;48761;42.680;23.312;2024-02-16T06:39:31;29.40;;;16.20;;
62696;SDS011;48761;42.680;23.312;2024-02-16T06:41:57;28.73;;;15.85;;
62696;SDS011;48761;42.680;23.312;2024-02-16T06:44:23;27.67;;;15.82;;
62696;SDS011;48761;42.680;23.312;2024-02-16T06:46:49;35.67;;;16.75;;
62696;SDS011;48761;42.680;23.312;2024-02-16T06:49:15;32.88;;;17.02;;
62696;SDS011;48761;42.680;23.312;2024-02-16T06:51:41;36.33;;;16.67;;
62696;SDS011;48761;42.680;23.312;2024-02-16T06:54:07;33.75;;;17.55;;
62696;SDS011;48761;42.680;23.312;2024-02-16T06:56:33;27.60;;;16.08;;
62696;SDS011;48761;42.680;23.312;2024-02-16T06:58:59;30.88;;;17.00;;
62696;SDS011;48761;42.680;23.312;2024-02-16T07:01:26;38.15;;;17.98;;
62696;SDS011;48761;42.680;23.312;2024-02-16T07:03:52;28.73;;;16.13;;
62696;SDS011;48761;42.680;23.312;2024-02-16T07:06:18;41.10;;;18.00;;
62696;SDS011;48761;42.680;23.312;2024-02-16T07:08:44;35.08;;;16.45;;
62696;SDS011;48761;42.680;23.312;2024-02-16T07:11:11;30.38;;;16.27;;
62696;SDS011;48761;42.680;23.312;2024-02-16T07:13:37;31.10;;;14.73;;
62696;SDS011;48761;42.680;23.312;2024-02-16T07:16:04;26.30;;;14.27;;
62696;SDS011;48761;42.680;23.312;2024-02-16T07:18:30;27.65;;;13.38;;
62696;SDS011;48761;42.680;23.312;2024-02-16T07:20:56;34.60;;;16.90;;
62696;SDS011;48761;42.680;23.312;2024-02-16T07:23:22;25.80;;;12.80;;
62696;SDS011;48761;42.680;23.312;2024-02-16T07:25:48;25.77;;;13.90;;
62696;SDS011;48761;42.680;23.312;2024-02-16T07:28:14;24.15;;;12.10;;
62696;SDS011;48761;42.680;23.312;2024-02-16T07:30:40;24.00;;;12.32;;
62696;SDS011;48761;42.680;23.312;2024-02-16T07:33:07;19.38;;;11.75;;
62696;SDS011;48761;42.680;23.312;2024-02-16T07:35:34;28.02;;;12.05;;
62696;SDS011;48761;42.680;23.312;2024-02-16T07:38:01;28.25;;;12.32;;
62696;SDS011;48761;42.680;23.312;2024-02-16T07:40:28;25.70;;;12.82;;
62696;SDS011;48761;42.680;23.312;2024-02-16T07:42:54;28.77;;;12.45;;
62696;SDS011;48761;42.680;23.312;2024-02-16T07:45:24;18.08;;;12.07;;
62696;SDS011;48761;42.680;23.312;2024-02-16T07:47:51;28.23;;;12.18;;
62696;SDS011;48761;42.680;23.312;2024-02-16T07:50:23;28.88;;;14.20;;
62696;SDS011;48761;42.680;23.312;2024-02-16T07:52:50;21.60;;;13.27;;
62696;SDS011;48761;42.680;23.312;2024-02-16T07:55:16;20.85;;;12.15;;
62696;SDS011;48761;42.680;23.312;2024-02-16T07:57:42;17.98;;;11.40;;
62696;SDS011;48761;42.680;23.312;2024-02-16T08:00:09;16.08;;;10.07;;
62696;SDS011;48761;42.680;23.312;2024-02-16T08:02:36;21.40;;;11.05;;
62696;SDS011;48761;42.680;23.312;2024-02-16T08:05:02;19.75;;;11.68;;
62696;SDS011;48761;42.680;23.312;2024-02-16T08:07:28;20.33;;;11.00;;
62696;SDS011;48761;42.680;23.312;2024-02-16T08:09:55;18.27;;;9.60;;
62696;SDS011;48761;42.680;23.312;2024-02-16T08:12:21;23.48;;;9.90;;
62696;SDS011;48761;42.680;23.312;2024-02-16T08:14:47;32.17;;;12.23;;
62696;SDS011;48761;42.680;23.312;2024-02-16T08:17:13;23.52;;;11.38;;
62696;SDS011;48761;42.680;23.312;2024-02-16T08:19:39;24.00;;;13.27;;
62696;SDS011;48761;42.680;23.312;2024-02-16T08:22:06;32.83;;;15.02;;
62696;SDS011;48761;42.680;23.312;2024-02-16T08:24:34;31.00;;;15.75;;
62696;SDS011;48761;42.680;23.312;2024-02-16T08:27:00;26.17;;;15.25;;
62696;SDS011;48761;42.680;23.312;2024-02-16T08:29:27;32.95;;;16.75;;
62696;SDS011;48761;42.680;23.312;2024-02-16T08:31:56;32.22;;;18.00;;
62696;SDS011;48761;42.680;23.312;2024-02-16T08:34:22;33.85;;;17.70;;
62696;SDS011;48761;42.680;23.312;2024-02-16T08:36:49;33.63;;;17.60;;
62696;SDS011;48761;42.680;23.312;2024-02-16T08:39:15;31.92;;;17.42;;
62696;SDS011;48761;42.680;23.312;2024-02-16T08:41:43;33.17;;;17.13;;
62696;SDS011;48761;42.680;23.312;2024-02-16T08:44:09;36.70;;;18.25;;
62696;SDS011;48761;42.680;23.312;2024-02-16T08:46:35;37.08;;;17.70;;
62696;SDS011;48761;42.680;23.312;2024-02-16T08:49:02;35.58;;;17.25;;
62696;SDS011;48761;42.680;23.312;2024-02-16T08:51:28;30.52;;;15.65;;
62696;SDS011;48761;42.680;23.312;2024-02-16T08:53:55;29.33;;;15.82;;
62696;SDS011;48761;42.680;23.312;2024-02-16T08:56:21;29.52;;;14.95;;
62696;SDS011;48761;42.680;23.312;2024-02-16T08:58:47;35.15;;;18.70;;
62696;SDS011;48761;42.680;23.312;2024-02-16T09:01:14;31.52;;;16.55;;
62696;SDS011;48761;42.680;23.312;2024-02-16T09:03:39;32.08;;;16.38;;
62696;SDS011;48761;42.680;23.312;2024-02-16T09:06:05;30.48;;;17.02;;
62696;SDS011;48761;42.680;23.312;2024-02-16T09:08:32;36.45;;;17.15;;
62696;SDS011;48761;42.680;23.312;2024-02-16T09:11:03;25.20;;;14.75;;
62696;SDS011;48761;42.680;23.312;2024-02-16T09:13:34;28.60;;;12.70;;
62696;SDS011;48761;42.680;23.312;2024-02-16T09:16:01;20.58;;;10.30;;
62696;SDS011;48761;42.680;23.312;2024-02-16T09:18:29;14.95;;;10.40;;
62696;SDS011;48761;42.680;23.312;2024-02-16T09:20:55;22.33;;;10.93;;
62696;SDS011;48761;42.680;23.312;2024-02-16T09:23:21;16.75;;;9.70;;
62696;SDS011;48761;42.680;23.312;2024-02-16T09:25:47;19.95;;;10.20;;
62696;SDS011;48761;42.680;23.312;2024-02-16T09:28:14;15.27;;;8.00;;
62696;SDS011;48761;42.680;23.312;2024-02-16T09:30:40;14.57;;;8.50;;
62696;SDS011;48761;42.680;23.312;2024-02-16T09:33:06;16.98;;;7.45;;
62696;SDS011;48761;42.680;23.312;2024-02-16T09:35:32;12.18;;;6.60;;
62696;SDS011;48761;42.680;23.312;2024-02-16T09:37:58;11.32;;;5.05;;
62696;SDS011;48761;42.680;23.312;2024-02-16T09:40:24;11.07;;;6.90;;
62696;SDS011;48761;42.680;23.312;2024-02-16T09:42:50;15.27;;;6.93;;
62696;SDS011;48761;42.680;23.312;2024-02-16T09:45:17;10.85;;;6.60;;
62696;SDS011;48761;42.680;23.312;2024-02-16T09:47:44;10.80;;;7.03;;
62696;SDS011;48761;42.680;23.312;2024-02-16T09:50:11;11.95;;;7.20;;
62696;SDS011;48761;42.680;23.312;2024-02-16T09:52:37;16.77;;;7.63;;
62696;SDS011;48761;42.680;23.312;2024-02-16T09:55:04;15.77;;;8.20;;
62696;SDS011;48761;42.680;23.312;2024-02-16T09:57:37;19.00;;;7.35;;
62696;SDS011;48761;42.680;23.312;2024-02-16T10:00:04;9.80;;;6.85;;
62696;SDS011;48761;42.680;23.312;2024-02-16T10:02:41;14.45;;;7.32;;
62696;SDS011;48761;42.680;23.312;2024-02-16T10:07:36;7.20;;;5.00;;
62696;SDS011;48761;42.680;23.312;2024-02-16T10:10:02;10.75;;;5.45;;
62696;SDS011;48761;42.680;23.312;2024-02-16T10:12:28;9.43;;;6.30;;
62696;SDS011;48761;42.680;23.312;2024-02-16T10:14:55;9.93;;;6.72;;
62696;SDS011;48761;42.680;23.312;2024-02-16T10:17:21;9.85;;;6.13;;
62696;SDS011;48761;42.680;23.312;2024-02-16T10:19:57;14.93;;;9.88;;
62696;SDS011;48761;42.680;23.312;2024-02-16T10:22:25;11.68;;;7.45;;
62696;SDS011;48761;42.680;23.312;2024-02-16T10:24:51;8.10;;;5.60;;
62696;SDS011;48761;42.680;23.312;2024-02-16T10:27:17;8.20;;;6.53;;
62696;SDS011;48761;42.680;23.312;2024-02-16T10:29:43;9.68;;;6.25;;
62696;SDS011;48761;42.680;23.312;2024-02-16T10:32:10;15.65;;;7.68;;
62696;SDS011;48761;42.680;23.312;2024-02-16T10:34:37;29.27;;;18.60;;
62696;SDS011;48761;42.680;23.312;2024-02-16T10:37:06;10.35;;;6.53;;
62696;SDS011;48761;42.680;23.312;2024-02-16T10:39:34;11.50;;;5.82;;
62696;SDS011;48761;42.680;23.312;2024-02-16T10:42:01;10.20;;;5.78;;
62696;SDS011;48761;42.680;23.312;2024-02-16T10:44:28;16.65;;;6.70;;
62696;SDS011;48761;42.680;23.312;2024-02-16T10:46:57;10.45;;;6.95;;
62696;SDS011;48761;42.680;23.312;2024-02-16T10:49:24;9.98;;;6.53;;
62696;SDS011;48761;42.680;23.312;2024-02-16T10:51:54;24.35;;;14.55;;
62696;SDS011;48761;42.680;23.312;2024-02-16T10:54:23;10.40;;;5.78;;
62696;SDS011;48761;42.680;23.312;2024-02-16T10:56:56;12.00;;;6.00;;
62696;SDS011;48761;42.680;23.312;2024-02-16T10:59:21;9.68;;;5.75;;
62696;SDS011;48761;42.680;23.312;2024-02-16T11:01:47;7.90;;;5.07;;
62696;SDS011;48761;42.680;23.312;2024-02-16T11:04:24;11.80;;;6.15;;
62696;SDS011;48761;42.680;23.312;2024-02-16T11:06:54;9.85;;;5.57;;
62696;SDS011;48761;42.680;23.312;2024-02-16T11:12:00;11.40;;;5.50;;
62696;SDS011;48761;42.680;23.312;2024-02-16T11:14:36;9.60;;;6.20;;
62696;SDS011;48761;42.680;23.312;2024-02-16T11:17:09;9.52;;;5.75;;
62696;SDS011;48761;42.680;23.312;2024-02-16T11:19:43;15.85;;;6.43;;
62696;SDS011;48761;42.680;23.312;2024-02-16T11:22:10;12.63;;;7.07;;
62696;SDS011;48761;42.680;23.312;2024-02-16T11:24:36;13.35;;;7.22;;
62696;SDS011;48761;42.680;23.312;2024-02-16T11:27:08;11.55;;;7.40;;
62696;SDS011;48761;42.680;23.312;2024-02-16T11:29:36;11.52;;;7.30;;
62696;SDS011;48761;42.680;23.312;2024-02-16T11:32:02;10.73;;;6.88;;
62696;SDS011;48761;42.680;23.312;2024-02-16T11:34:29;11.45;;;6.75;;
62696;SDS011;48761;42.680;23.312;2024-02-16T11:36:56;10.73;;;6.82;;
62696;SDS011;48761;42.680;23.312;2024-02-16T11:39:29;15.43;;;6.07;;
62696;SDS011;48761;42.680;23.312;2024-02-16T11:42:00;10.20;;;6.15;;
62696;SDS011;48761;42.680;23.312;2024-02-16T11:44:28;10.75;;;7.18;;
62696;SDS011;48761;42.680;23.312;2024-02-16T11:46:54;11.20;;;6.65;;
62696;SDS011;48761;42.680;23.312;2024-02-16T11:49:21;9.95;;;6.75;;
62696;SDS011;48761;42.680;23.312;2024-02-16T11:51:47;13.77;;;6.88;;
62696;SDS011;48761;42.680;23.312;2024-02-16T11:54:13;12.55;;;6.70;;
62696;SDS011;48761;42.680;23.312;2024-02-16T11:56:39;12.63;;;7.35;;
62696;SDS011;48761;42.680;23.312;2024-02-16T11:59:06;12.15;;;6.47;;
62696;SDS011;48761;42.680;23.312;2024-02-16T12:01:32;10.38;;;6.28;;
62696;SDS011;48761;42.680;23.312;2024-02-16T12:03:58;8.40;;;5.72;;
62696;SDS011;48761;42.680;23.312;2024-02-16T12:06:24;8.93;;;5.25;;
62696;SDS011;48761;42.680;23.312;2024-02-16T12:08:50;7.60;;;4.72;;
62696;SDS011;48761;42.680;23.312;2024-02-16T12:11:16;11.65;;;5.55;;
62696;SDS011;48761;42.680;23.312;2024-02-16T12:13:44;7.05;;;4.97;;
62696;SDS011;48761;42.680;23.312;2024-02-16T12:16:10;10.07;;;5.70;;
62696;SDS011;48761;42.680;23.312;2024-02-16T12:18:36;8.05;;;4.97;;
62696;SDS011;48761;42.680;23.312;2024-02-16T12:21:03;10.30;;;5.70;;
62696;SDS011;48761;42.680;23.312;2024-02-16T12:23:30;9.82;;;5.30;;
62696;SDS011;48761;42.680;23.312;2024-02-16T12:25:56;8.45;;;4.93;;
62696;SDS011;48761;42.680;23.312;2024-02-16T12:28:24;6.75;;;5.07;;
62696;SDS011;48761;42.680;23.312;2024-02-16T12:30:51;9.05;;;4.95;;
62696;SDS011;48761;42.680;23.312;2024-02-16T12:33:17;10.00;;;4.70;;
62696;SDS011;48761;42.680;23.312;2024-02-16T12:35:43;7.40;;;5.32;;
62696;SDS011;48761;42.680;23.312;2024-02-16T12:38:10;6.85;;;4.72;;
62696;SDS011;48761;42.680;23.312;2024-02-16T12:40:40;11.32;;;5.80;;
62696;SDS011;48761;42.680;23.312;2024-02-16T12:43:06;8.40;;;5.70;;
62696;SDS011;48761;42.680;23.312;2024-02-16T12:45:32;9.10;;;5.88;;
62696;SDS011;48761;42.680;23.312;2024-02-16T12:47:58;8.63;;;5.57;;
62696;SDS011;48761;42.680;23.312;2024-02-16T12:50:24;9.43;;;5.95;;
62696;SDS011;48761;42.680;23.312;2024-02-16T12:52:50;10.65;;;5.50;;
62696;SDS011;48761;42.680;23.312;2024-02-16T12:55:16;9.05;;;6.10;;
62696;SDS011;48761;42.680;23.312;2024-02-16T12:57:42;11.90;;;5.78;;
62696;SDS011;48761;42.680;23.312;2024-02-16T13:00:08;12.05;;;6.22;;
62696;SDS011;48761;42.680;23.312;2024-02-16T13:02:34;12.25;;;6.63;;
62696;SDS011;48761;42.680;23.312;2024-02-16T13:05:00;10.38;;;6.10;;
62696;SDS011;48761;42.680;23.312;2024-02-16T13:07:26;10.13;;;6.25;;
62696;SDS011;48761;42.680;23.312;2024-02-16T13:09:52;9.35;;;5.38;;
62696;SDS011;48761;42.680;23.312;2024-02-16T13:12:19;8.35;;;6.10;;
62696;SDS011;48761;42.680;23.312;2024-02-16T13:14:45;9.15;;;5.78;;
62696;SDS011;48761;42.680;23.312;2024-02-16T13:17:11;7.63;;;5.50;;
62696;SDS011;48761;42.680;23.312;2024-02-16T13:19:37;9.10;;;5.40;;
62696;SDS011;48761;42.680;23.312;2024-02-16T13:22:03;8.02;;;5.22;;
62696;SDS011;48761;42.680;23.312;2024-02-16T13:24:29;8.88;;;5.78;;
62696;SDS011;48761;42.680;23.312;2024-02-16T13:26:56;11.40;;;5.97;;
62696;SDS011;48761;42.680;23.312;2024-02-16T13:29:22;10.35;;;5.88;;
62696;SDS011;48761;42.680;23.312;2024-02-16T13:31:48;8.98;;;5.22;;
62696;SDS011;48761;42.680;23.312;2024-02-16T13:34:14;8.45;;;5.57;;
62696;SDS011;48761;42.680;23.312;2024-02-16T13:36:40;10.00;;;5.28;;
62696;SDS011;48761;42.680;23.312;2024-02-16T13:39:07;15.65;;;6.20;;
62696;SDS011;48761;42.680;23.312;2024-02-16T13:41:33;8.38;;;5.47;;
62696;SDS011;48761;42.680;23.312;2024-02-16T13:43:59;9.30;;;5.15;;
62696;SDS011;48761;42.680;23.312;2024-02-16T13:46:26;13.25;;;5.63;;
62696;SDS011;48761;42.680;23.312;2024-02-16T13:48:52;10.48;;;4.85;;
62696;SDS011;48761;42.680;23.312;2024-02-16T13:51:18;9.00;;;4.40;;
62696;SDS011;48761;42.680;23.312;2024-02-16T13:53:44;17.42;;;4.97;;
62696;SDS011;48761;42.680;23.312;2024-02-16T13:56:10;15.30;;;4.90;;
62696;SDS011;48761;42.680;23.312;2024-02-16T13:58:36;7.82;;;4.68;;
62696;SDS011;48761;42.680;23.312;2024-02-16T14:01:02;8.50;;;5.28;;
62696;SDS011;48761;42.680;23.312;2024-02-16T14:03:30;10.88;;;6.15;;
62696;SDS011;48761;42.680;23.312;2024-02-16T14:06:00;9.35;;;5.53;;
62696;SDS011;48761;42.680;23.312;2024-02-16T14:08:27;8.80;;;5.53;;
62696;SDS011;48761;42.680;23.312;2024-02-16T14:10:53;8.18;;;5.50;;
62696;SDS011;48761;42.680;23.312;2024-02-16T14:13:19;12.75;;;6.32;;
62696;SDS011;48761;42.680;23.312;2024-02-16T14:15:45;7.38;;;5.35;;
62696;SDS011;48761;42.680;23.312;2024-02-16T14:18:11;9.82;;;5.28;;
62696;SDS011;48761;42.680;23.312;2024-02-16T14:20:37;7.82;;;4.70;;